sensor_id;sensor_type;location;lat;lon;timestamp;pressure;altitude;pressure_sealevel;temperature;humidity
18500;BME280;9379;52.134;11.576;2023-11-19T00:01:01;100614.56;;;7.71;100.00
18500;BME280;9379;52.134;11.576;2023-11-19T00:03:30;100608.91;;;7.65;100.00
18500;BME280;9379;52.134;11.576;2023-11-19T00:06:00;100597.28;;;7.78;100.00
18500;BME280;9379;52.134;11.576;2023-11-19T00:08:27;100596.06;;;7.71;100.00
18500;BME280;9379;52.134;11.576;2023-11-19T00:10:54;100581.88;;;7.37;100.00
18500;BME280;9379;52.134;11.576;2023-11-19T00:13:21;100587.03;;;7.85;100.00
18500;BME280;9379;52.134;11.576;2023-11-19T00:15:48;100584.22;;;7.42;100.00
18500;BME280;9379;52.134;11.576;2023-11-19T00:18:15;100568.66;;;7.37;100.00
18500;BME280;9379;52.134;11.576;2023-11-19T00:20:42;100563.63;;;7.34;100.00
18500;BME280;9379;52.134;11.576;2023-11-19T00:23:11;100547.91;;;7.44;100.00
18500;BME280;9379;52.134;11.576;2023-11-19T00:25:38;100550.28;;;7.36;100.00
18500;BME280;9379;52.134;11.576;2023-11-19T00:28:05;100530.94;;;7.35;100.00
18500;BME280;9379;52.134;11.576;2023-11-19T00:30:32;100522.09;;;7.12;100.00
18500;BME280;9379;52.134;11.576;2023-11-19T00:32:59;100541.75;;;7.32;100.00
18500;BME280;9379;52.134;11.576;2023-11-19T00:35:26;100531.50;;;7.27;100.00
18500;BME280;9379;52.134;11.576;2023-11-19T00:37:52;100507.38;;;7.32;100.00
18500;BME280;9379;52.134;11.576;2023-11-19T00:40:21;100498.06;;;7.15;100.00
18500;BME280;9379;52.134;11.576;2023-11-19T00:42:48;100503.28;;;7.39;100.00
18500;BME280;9379;52.134;11.576;2023-11-19T00:45:15;100496.56;;;7.35;100.00
18500;BME280;9379;52.134;11.576;2023-11-19T00:47:42;100496.50;;;7.70;100.00
18500;BME280;9379;52.134;11.576;2023-11-19T00:50:10;100490.28;;;7.25;100.00
18500;BME280;9379;52.134;11.576;2023-11-19T00:52:38;100483.59;;;7.32;100.00
18500;BME280;9379;52.134;11.576;2023-11-19T00:55:06;100474.50;;;7.58;100.00
18500;BME280;9379;52.134;11.576;2023-11-19T00:57:34;100461.25;;;7.47;100.00
18500;BME280;9379;52.134;11.576;2023-11-19T01:00:02;100463.91;;;7.47;100.00
18500;BME280;9379;52.134;11.576;2023-11-19T01:02:34;100450.78;;;7.35;100.00
18500;BME280;9379;52.134;11.576;2023-11-19T01:05:01;100446.81;;;7.63;100.00
18500;BME280;9379;52.134;11.576;2023-11-19T01:07:28;100438.44;;;7.69;100.00
18500;BME280;9379;52.134;11.576;2023-11-19T01:09:55;100436.50;;;7.59;100.00
18500;BME280;9379;52.134;11.576;2023-11-19T01:12:22;100454.28;;;7.80;100.00
18500;BME280;9379;52.134;11.576;2023-11-19T01:14:50;100440.94;;;7.70;100.00
18500;BME280;9379;52.134;11.576;2023-11-19T01:17:17;100434.56;;;7.61;100.00
18500;BME280;9379;52.134;11.576;2023-11-19T01:19:44;100433.84;;;7.37;100.00
18500;BME280;9379;52.134;11.576;2023-11-19T01:22:10;100414.88;;;7.54;100.00
18500;BME280;9379;52.134;11.576;2023-11-19T01:24:37;100409.81;;;7.51;100.00
18500;BME280;9379;52.134;11.576;2023-11-19T01:27:04;100400.06;;;7.63;100.00
18500;BME280;9379;52.134;11.576;2023-11-19T01:29:31;100396.81;;;7.37;100.00
18500;BME280;9379;52.134;11.576;2023-11-19T01:32:00;100390.13;;;7.44;100.00
18500;BME280;9379;52.134;11.576;2023-11-19T01:34:26;100401.03;;;7.51;100.00
18500;BME280;9379;52.134;11.576;2023-11-19T01:36:54;100392.38;;;7.60;100.00
18500;BME280;9379;52.134;11.576;2023-11-19T01:39:21;100388.75;;;7.72;100.00
18500;BME280;9379;52.134;11.576;2023-11-19T01:41:47;100384.09;;;7.65;100.00
18500;BME280;9379;52.134;11.576;2023-11-19T01:44:14;100362.09;;;7.53;100.00
18500;BME280;9379;52.134;11.576;2023-11-19T01:46:42;100371.31;;;7.81;100.00
18500;BME280;9379;52.134;11.576;2023-11-19T01:49:13;100359.47;;;7.64;100.00
18500;BME280;9379;52.134;11.576;2023-11-19T01:51:43;100331.22;;;7.53;100.00
18500;BME280;9379;52.134;11.576;2023-11-19T01:54:10;100323.50;;;7.61;100.00
18500;BME280;9379;52.134;11.576;2023-11-19T01:56:38;100325.19;;;7.51;100.00
18500;BME280;9379;52.134;11.576;2023-11-19T01:59:07;100322.75;;;7.71;100.00
18500;BME280;9379;52.134;11.576;2023-11-19T02:01:35;100321.19;;;7.79;100.00
18500;BME280;9379;52.134;11.576;2023-11-19T02:04:05;100318.72;;;7.55;100.00
18500;BME280;9379;52.134;11.576;2023-11-19T02:06:34;100310.91;;;7.54;100.00
18500;BME280;9379;52.134;11.576;2023-11-19T02:09:05;100285.28;;;7.66;100.00
18500;BME280;9379;52.134;11.576;2023-11-19T02:11:33;100279.50;;;7.60;100.00
18500;BME280;9379;52.134;11.576;2023-11-19T02:14:00;100282.16;;;7.49;100.00
18500;BME280;9379;52.134;11.576;2023-11-19T02:16:29;100266.38;;;7.70;100.00
18500;BME280;9379;52.134;11.576;2023-11-19T02:18:56;100281.81;;;7.54;100.00
18500;BME280;9379;52.134;11.576;2023-11-19T02:21:23;100273.66;;;7.35;100.00
18500;BME280;9379;52.134;11.576;2023-11-19T02:23:51;100265.72;;;7.46;100.00
18500;BME280;9379;52.134;11.576;2023-11-19T02:26:22;100247.50;;;7.96;100.00
18500;BME280;9379;52.134;11.576;2023-11-19T02:28:52;100245.50;;;7.56;100.00
18500;BME280;9379;52.134;11.576;2023-11-19T02:31:19;100248.53;;;7.83;100.00
18500;BME280;9379;52.134;11.576;2023-11-19T02:33:46;100243.28;;;7.72;100.00
18500;BME280;9379;52.134;11.576;2023-11-19T02:36:13;100235.16;;;7.64;100.00
18500;BME280;9379;52.134;11.576;2023-11-19T02:38:39;100222.25;;;7.71;100.00
18500;BME280;9379;52.134;11.576;2023-11-19T02:41:07;100218.72;;;7.81;100.00
18500;BME280;9379;52.134;11.576;2023-11-19T02:43:36;100220.13;;;7.85;100.00
18500;BME280;9379;52.134;11.576;2023-11-19T02:46:05;100214.41;;;8.01;100.00
18500;BME280;9379;52.134;11.576;2023-11-19T02:48:34;100198.53;;;8.01;100.00
18500;BME280;9379;52.134;11.576;2023-11-19T02:51:01;100177.94;;;7.84;100.00
18500;BME280;9379;52.134;11.576;2023-11-19T02:53:29;100184.16;;;7.62;100.00
18500;BME280;9379;52.134;11.576;2023-11-19T02:55:56;100179.63;;;7.64;100.00
18500;BME280;9379;52.134;11.576;2023-11-19T02:58:32;100170.25;;;7.81;100.00
18500;BME280;9379;52.134;11.576;2023-11-19T03:01:00;100163.25;;;7.91;100.00
18500;BME280;9379;52.134;11.576;2023-11-19T03:03:37;100163.44;;;7.78;100.00
18500;BME280;9379;52.134;11.576;2023-11-19T03:06:06;100162.13;;;7.94;100.00
18500;BME280;9379;52.134;11.576;2023-11-19T03:08:35;100164.25;;;7.79;100.00
18500;BME280;9379;52.134;11.576;2023-11-19T03:11:02;100168.66;;;8.10;100.00
18500;BME280;9379;52.134;11.576;2023-11-19T03:13:30;100174.78;;;7.90;100.00
18500;BME280;9379;52.134;11.576;2023-11-19T03:15:57;100172.25;;;8.09;100.00
18500;BME280;9379;52.134;11.576;2023-11-19T03:18:24;100166.03;;;8.10;100.00
18500;BME280;9379;52.134;11.576;2023-11-19T03:20:53;100159.28;;;8.06;100.00
18500;BME280;9379;52.134;11.576;2023-11-19T03:23:20;100166.72;;;7.92;100.00
18500;BME280;9379;52.134;11.576;2023-11-19T03:25:48;100146.03;;;8.27;100.00
18500;BME280;9379;52.134;11.576;2023-11-19T03:28:15;100147.03;;;8.05;100.00
18500;BME280;9379;52.134;11.576;2023-11-19T03:30:42;100128.00;;;8.11;100.00
18500;BME280;9379;52.134;11.576;2023-11-19T03:33:09;100124.94;;;8.37;100.00
18500;BME280;9379;52.134;11.576;2023-11-19T03:35:35;100131.56;;;8.31;100.00
18500;BME280;9379;52.134;11.576;2023-11-19T03:38:04;100118.09;;;8.34;100.00
18500;BME280;9379;52.134;11.576;2023-11-19T03:40:31;100114.00;;;8.30;100.00
18500;BME280;9379;52.134;11.576;2023-11-19T03:42:59;100094.72;;;8.18;100.00
18500;BME280;9379;52.134;11.576;2023-11-19T03:45:25;100081.63;;;8.17;100.00
18500;BME280;9379;52.134;11.576;2023-11-19T03:47:52;100086.81;;;8.28;100.00
18500;BME280;9379;52.134;11.576;2023-11-19T03:50:19;100074.78;;;8.35;100.00
18500;BME280;9379;52.134;11.576;2023-11-19T03:52:46;100072.13;;;8.35;100.00
18500;BME280;9379;52.134;11.576;2023-11-19T03:55:15;100055.59;;;8.22;100.00
18500;BME280;9379;52.134;11.576;2023-11-19T03:57:42;100044.72;;;8.46;100.00
18500;BME280;9379;52.134;11.576;2023-11-19T04:00:09;100049.44;;;8.22;100.00
18500;BME280;9379;52.134;11.576;2023-11-19T04:02:39;100036.34;;;8.51;100.00
18500;BME280;9379;52.134;11.576;2023-11-19T04:05:06;100033.81;;;8.39;100.00
18500;BME280;9379;52.134;11.576;2023-11-19T04:07:35;100030.47;;;8.37;100.00
18500;BME280;9379;52.134;11.576;2023-11-19T04:10:02;100038.47;;;8.57;100.00
18500;BME280;9379;52.134;11.576;2023-11-19T04:12:30;100040.13;;;8.58;100.00
18500;BME280;9379;52.134;11.576;2023-11-19T04:14:57;100031.78;;;8.72;100.00
18500;BME280;9379;52.134;11.576;2023-11-19T04:17:24;100018.09;;;8.67;100.00
18500;BME280;9379;52.134;11.576;2023-11-19T04:19:51;100023.97;;;8.61;100.00
18500;BME280;9379;52.134;11.576;2023-11-19T04:22:18;100024.25;;;8.58;100.00
18500;BME280;9379;52.134;11.576;2023-11-19T04:24:45;100024.81;;;8.90;100.00
18500;BME280;9379;52.134;11.576;2023-11-19T04:27:12;100017.28;;;8.86;100.00
18500;BME280;9379;52.134;11.576;2023-11-19T04:29:40;100022.59;;;9.05;100.00
18500;BME280;9379;52.134;11.576;2023-11-19T04:32:07;100029.72;;;8.85;100.00
18500;BME280;9379;52.134;11.576;2023-11-19T04:34:34;100032.78;;;9.00;100.00
18500;BME280;9379;52.134;11.576;2023-11-19T04:37:03;100034.59;;;8.99;100.00
18500;BME280;9379;52.134;11.576;2023-11-19T04:39:30;100011.56;;;8.90;100.00
18500;BME280;9379;52.134;11.576;2023-11-19T04:41:57;100004.47;;;8.81;100.00
18500;BME280;9379;52.134;11.576;2023-11-19T04:44:24;100004.31;;;9.02;100.00
18500;BME280;9379;52.134;11.576;2023-11-19T04:46:53;99994.69;;;9.30;100.00
18500;BME280;9379;52.134;11.576;2023-11-19T04:49:20;99998.84;;;9.42;100.00
18500;BME280;9379;52.134;11.576;2023-11-19T04:51:47;99991.53;;;9.63;100.00
18500;BME280;9379;52.134;11.576;2023-11-19T04:54:13;99995.75;;;9.56;100.00
18500;BME280;9379;52.134;11.576;2023-11-19T04:56:41;100001.38;;;9.24;100.00
18500;BME280;9379;52.134;11.576;2023-11-19T04:59:11;99989.22;;;9.31;100.00
18500;BME280;9379;52.134;11.576;2023-11-19T05:01:38;99989.06;;;9.43;100.00
18500;BME280;9379;52.134;11.576;2023-11-19T05:04:07;99989.06;;;9.52;100.00
18500;BME280;9379;52.134;11.576;2023-11-19T05:06:34;99993.59;;;9.70;100.00
18500;BME280;9379;52.134;11.576;2023-11-19T05:09:01;99972.84;;;9.55;100.00
18500;BME280;9379;52.134;11.576;2023-11-19T05:11:30;99970.88;;;9.57;100.00
18500;BME280;9379;52.134;11.576;2023-11-19T05:13:57;99971.94;;;9.27;100.00
18500;BME280;9379;52.134;11.576;2023-11-19T05:16:23;99974.56;;;9.37;100.00
18500;BME280;9379;52.134;11.576;2023-11-19T05:18:50;99973.88;;;9.35;100.00
18500;BME280;9379;52.134;11.576;2023-11-19T05:21:19;99974.69;;;9.35;100.00
18500;BME280;9379;52.134;11.576;2023-11-19T05:23:45;99971.31;;;9.53;100.00
18500;BME280;9379;52.134;11.576;2023-11-19T05:26:17;99976.03;;;9.59;100.00
18500;BME280;9379;52.134;11.576;2023-11-19T05:28:46;99972.03;;;9.45;100.00
18500;BME280;9379;52.134;11.576;2023-11-19T05:31:13;99970.97;;;9.75;100.00
18500;BME280;9379;52.134;11.576;2023-11-19T05:33:40;99963.91;;;9.93;100.00
18500;BME280;9379;52.134;11.576;2023-11-19T05:36:07;99973.03;;;9.81;100.00
18500;BME280;9379;52.134;11.576;2023-11-19T05:38:36;99967.63;;;9.73;100.00
18500;BME280;9379;52.134;11.576;2023-11-19T05:41:03;99962.59;;;9.70;100.00
18500;BME280;9379;52.134;11.576;2023-11-19T05:43:31;99966.09;;;9.71;100.00
18500;BME280;9379;52.134;11.576;2023-11-19T05:45:58;99964.22;;;9.81;100.00
18500;BME280;9379;52.134;11.576;2023-11-19T05:48:26;99959.03;;;9.61;100.00
18500;BME280;9379;52.134;11.576;2023-11-19T05:50:53;99960.34;;;9.75;100.00
18500;BME280;9379;52.134;11.576;2023-11-19T05:53:21;99961.84;;;9.87;100.00
18500;BME280;9379;52.134;11.576;2023-11-19T05:55:51;99964.59;;;9.96;100.00
18500;BME280;9379;52.134;11.576;2023-11-19T05:58:23;99957.31;;;9.98;100.00
18500;BME280;9379;52.134;11.576;2023-11-19T06:00:54;99951.72;;;10.01;100.00
18500;BME280;9379;52.134;11.576;2023-11-19T06:03:21;99944.16;;;10.33;100.00
18500;BME280;9379;52.134;11.576;2023-11-19T06:05:47;99941.72;;;10.22;100.00
18500;BME280;9379;52.134;11.576;2023-11-19T06:08:15;99940.81;;;10.31;100.00
18500;BME280;9379;52.134;11.576;2023-11-19T06:10:43;99943.56;;;10.12;100.00
18500;BME280;9379;52.134;11.576;2023-11-19T06:13:13;99945.16;;;10.32;100.00
18500;BME280;9379;52.134;11.576;2023-11-19T06:15:40;99950.00;;;10.37;100.00
18500;BME280;9379;52.134;11.576;2023-11-19T06:18:07;99934.22;;;10.35;100.00
18500;BME280;9379;52.134;11.576;2023-11-19T06:20:34;99938.22;;;10.39;100.00
18500;BME280;9379;52.134;11.576;2023-11-19T06:23:01;99935.66;;;10.47;100.00
18500;BME280;9379;52.134;11.576;2023-11-19T06:25:28;99932.84;;;10.49;100.00
18500;BME280;9379;52.134;11.576;2023-11-19T06:27:55;99937.56;;;10.55;100.00
18500;BME280;9379;52.134;11.576;2023-11-19T06:30:24;99937.81;;;10.44;100.00
18500;BME280;9379;52.134;11.576;2023-11-19T06:32:55;99947.75;;;10.42;100.00
18500;BME280;9379;52.134;11.576;2023-11-19T06:35:22;99940.66;;;10.50;100.00
18500;BME280;9379;52.134;11.576;2023-11-19T06:37:49;99928.06;;;10.52;100.00
18500;BME280;9379;52.134;11.576;2023-11-19T06:40:16;99943.84;;;10.36;100.00
18500;BME280;9379;52.134;11.576;2023-11-19T06:42:43;99934.16;;;10.45;100.00
18500;BME280;9379;52.134;11.576;2023-11-19T06:45:10;99927.44;;;10.41;100.00
18500;BME280;9379;52.134;11.576;2023-11-19T06:47:38;99944.09;;;10.61;100.00
18500;BME280;9379;52.134;11.576;2023-11-19T06:50:07;99947.66;;;10.51;100.00
18500;BME280;9379;52.134;11.576;2023-11-19T06:52:34;99953.34;;;10.39;100.00
18500;BME280;9379;52.134;11.576;2023-11-19T06:55:03;99951.72;;;10.28;100.00
18500;BME280;9379;52.134;11.576;2023-11-19T06:57:30;99947.03;;;10.40;100.00
18500;BME280;9379;52.134;11.576;2023-11-19T06:59:57;99939.69;;;10.34;100.00
18500;BME280;9379;52.134;11.576;2023-11-19T07:02:24;99939.25;;;10.56;100.00
18500;BME280;9379;52.134;11.576;2023-11-19T07:04:53;99945.72;;;10.54;100.00
18500;BME280;9379;52.134;11.576;2023-11-19T07:07:20;99951.44;;;10.49;100.00
18500;BME280;9379;52.134;11.576;2023-11-19T07:09:46;99952.06;;;10.61;100.00
18500;BME280;9379;52.134;11.576;2023-11-19T07:12:13;99961.56;;;10.63;100.00
18500;BME280;9379;52.134;11.576;2023-11-19T07:14:40;99962.00;;;10.76;100.00
18500;BME280;9379;52.134;11.576;2023-11-19T07:17:08;99971.69;;;10.77;100.00
18500;BME280;9379;52.134;11.576;2023-11-19T07:19:35;99972.75;;;11.10;100.00
18500;BME280;9379;52.134;11.576;2023-11-19T07:22:05;99972.41;;;11.05;100.00
18500;BME280;9379;52.134;11.576;2023-11-19T07:24:33;99972.44;;;11.31;100.00
18500;BME280;9379;52.134;11.576;2023-11-19T07:27:00;99974.75;;;11.26;100.00
18500;BME280;9379;52.134;11.576;2023-11-19T07:29:29;99982.22;;;11.49;100.00
18500;BME280;9379;52.134;11.576;2023-11-19T07:31:58;99976.00;;;11.40;100.00
18500;BME280;9379;52.134;11.576;2023-11-19T07:34:27;99978.50;;;11.42;100.00
18500;BME280;9379;52.134;11.576;2023-11-19T07:36:54;99981.13;;;11.16;100.00
18500;BME280;9379;52.134;11.576;2023-11-19T07:39:24;99971.44;;;11.32;100.00
18500;BME280;9379;52.134;11.576;2023-11-19T07:41:51;99970.94;;;11.29;100.00
18500;BME280;9379;52.134;11.576;2023-11-19T07:44:17;99982.06;;;11.50;100.00
18500;BME280;9379;52.134;11.576;2023-11-19T07:46:44;99982.81;;;11.43;100.00
18500;BME280;9379;52.134;11.576;2023-11-19T07:49:12;99982.97;;;11.15;100.00
18500;BME280;9379;52.134;11.576;2023-11-19T07:51:39;99981.28;;;11.14;100.00
18500;BME280;9379;52.134;11.576;2023-11-19T07:54:07;99981.78;;;11.35;100.00
18500;BME280;9379;52.134;11.576;2023-11-19T07:56:38;99982.03;;;11.76;100.00
18500;BME280;9379;52.134;11.576;2023-11-19T07:59:05;99992.22;;;11.81;100.00
18500;BME280;9379;52.134;11.576;2023-11-19T08:01:35;99992.81;;;11.92;100.00
18500;BME280;9379;52.134;11.576;2023-11-19T08:04:01;99996.34;;;12.01;100.00
18500;BME280;9379;52.134;11.576;2023-11-19T08:06:29;99995.34;;;12.02;100.00
18500;BME280;9379;52.134;11.576;2023-11-19T08:08:56;99990.28;;;11.83;100.00
18500;BME280;9379;52.134;11.576;2023-11-19T08:11:23;99994.50;;;11.93;100.00
18500;BME280;9379;52.134;11.576;2023-11-19T08:13:51;99990.56;;;12.14;100.00
18500;BME280;9379;52.134;11.576;2023-11-19T08:16:18;99995.88;;;12.14;100.00
18500;BME280;9379;52.134;11.576;2023-11-19T08:18:45;100008.91;;;12.25;100.00
18500;BME280;9379;52.134;11.576;2023-11-19T08:21:12;99997.63;;;12.31;100.00
18500;BME280;9379;52.134;11.576;2023-11-19T08:23:39;99994.78;;;12.24;100.00
18500;BME280;9379;52.134;11.576;2023-11-19T08:26:06;100001.53;;;12.53;100.00
18500;BME280;9379;52.134;11.576;2023-11-19T08:28:33;100001.69;;;12.43;100.00
18500;BME280;9379;52.134;11.576;2023-11-19T08:31:02;100005.84;;;12.46;100.00
18500;BME280;9379;52.134;11.576;2023-11-19T08:33:30;99997.25;;;12.18;100.00
18500;BME280;9379;52.134;11.576;2023-11-19T08:35:56;99996.50;;;12.42;100.00
18500;BME280;9379;52.134;11.576;2023-11-19T08:38:24;100002.72;;;12.50;100.00
18500;BME280;9379;52.134;11.576;2023-11-19T08:40:51;100002.00;;;12.48;100.00
18500;BME280;9379;52.134;11.576;2023-11-19T08:43:18;99995.84;;;12.48;100.00
18500;BME280;9379;52.134;11.576;2023-11-19T08:45:45;100003.84;;;12.48;100.00
18500;BME280;9379;52.134;11.576;2023-11-19T08:48:13;100005.56;;;12.65;100.00
18500;BME280;9379;52.134;11.576;2023-11-19T08:50:40;100009.72;;;12.68;100.00
18500;BME280;9379;52.134;11.576;2023-11-19T08:53:07;100000.78;;;12.93;100.00
18500;BME280;9379;52.134;11.576;2023-11-19T08:55:34;100007.78;;;13.02;100.00
18500;BME280;9379;52.134;11.576;2023-11-19T08:58:00;100009.63;;;13.18;100.00
18500;BME280;9379;52.134;11.576;2023-11-19T09:00:27;100016.81;;;13.09;100.00
18500;BME280;9379;52.134;11.576;2023-11-19T09:02:55;100027.44;;;12.85;100.00
18500;BME280;9379;52.134;11.576;2023-11-19T09:05:25;100033.47;;;13.03;100.00
18500;BME280;9379;52.134;11.576;2023-11-19T09:07:52;100031.00;;;13.26;100.00
18500;BME280;9379;52.134;11.576;2023-11-19T09:10:19;100022.50;;;13.31;100.00
18500;BME280;9379;52.134;11.576;2023-11-19T09:12:46;100023.34;;;13.31;100.00
18500;BME280;9379;52.134;11.576;2023-11-19T09:15:13;100026.84;;;13.48;100.00
18500;BME280;9379;52.134;11.576;2023-11-19T09:17:40;100025.84;;;13.49;100.00
18500;BME280;9379;52.134;11.576;2023-11-19T09:20:07;100028.50;;;13.49;100.00
18500;BME280;9379;52.134;11.576;2023-11-19T09:22:39;100015.50;;;13.46;100.00
18500;BME280;9379;52.134;11.576;2023-11-19T09:25:07;100023.31;;;13.72;100.00
18500;BME280;9379;52.134;11.576;2023-11-19T09:27:34;100019.97;;;13.70;100.00
18500;BME280;9379;52.134;11.576;2023-11-19T09:30:01;100016.78;;;13.83;100.00
18500;BME280;9379;52.134;11.576;2023-11-19T09:32:29;100017.91;;;13.88;98.75
18500;BME280;9379;52.134;11.576;2023-11-19T09:34:56;100026.63;;;13.66;100.00
18500;BME280;9379;52.134;11.576;2023-11-19T09:37:23;100025.81;;;13.65;100.00
18500;BME280;9379;52.134;11.576;2023-11-19T09:39:51;100032.38;;;14.10;99.90
18500;BME280;9379;52.134;11.576;2023-11-19T09:42:19;100032.88;;;14.14;98.25
18500;BME280;9379;52.134;11.576;2023-11-19T09:44:47;100042.47;;;13.92;98.15
18500;BME280;9379;52.134;11.576;2023-11-19T09:47:16;100045.13;;;13.92;97.33
18500;BME280;9379;52.134;11.576;2023-11-19T09:49:45;100038.44;;;13.88;98.47
18500;BME280;9379;52.134;11.576;2023-11-19T09:52:13;100053.47;;;13.89;97.42
18500;BME280;9379;52.134;11.576;2023-11-19T09:55:07;100051.19;;;13.61;98.08
18500;BME280;9379;52.134;11.576;2023-11-19T09:57:34;100045.13;;;13.92;96.95
18500;BME280;9379;52.134;11.576;2023-11-19T10:00:03;100042.38;;;13.45;99.79
18500;BME280;9379;52.134;11.576;2023-11-19T10:02:33;100037.69;;;13.55;99.17
18500;BME280;9379;52.134;11.576;2023-11-19T10:05:04;100033.63;;;13.91;97.81
18500;BME280;9379;52.134;11.576;2023-11-19T10:07:32;100038.00;;;13.68;98.43
18500;BME280;9379;52.134;11.576;2023-11-19T10:09:59;100035.16;;;13.69;98.72
18500;BME280;9379;52.134;11.576;2023-11-19T10:12:28;100042.47;;;13.84;98.13
18500;BME280;9379;52.134;11.576;2023-11-19T10:14:57;100032.25;;;14.04;97.77
18500;BME280;9379;52.134;11.576;2023-11-19T10:17:27;100027.81;;;13.71;99.47
18500;BME280;9379;52.134;11.576;2023-11-19T10:19:55;100028.94;;;13.77;99.22
18500;BME280;9379;52.134;11.576;2023-11-19T10:22:22;100028.28;;;13.91;96.91
18500;BME280;9379;52.134;11.576;2023-11-19T10:24:50;100037.88;;;14.17;95.60
18500;BME280;9379;52.134;11.576;2023-11-19T10:27:17;100035.59;;;13.97;96.33
18500;BME280;9379;52.134;11.576;2023-11-19T10:29:46;100032.28;;;13.87;96.89
18500;BME280;9379;52.134;11.576;2023-11-19T10:32:14;100034.66;;;13.50;97.55
18500;BME280;9379;52.134;11.576;2023-11-19T10:34:41;100028.31;;;13.67;97.60
18500;BME280;9379;52.134;11.576;2023-11-19T10:37:08;100028.81;;;13.79;96.31
18500;BME280;9379;52.134;11.576;2023-11-19T10:39:51;100020.44;;;13.73;96.41
18500;BME280;9379;52.134;11.576;2023-11-19T10:42:20;100021.75;;;14.02;94.62
18500;BME280;9379;52.134;11.576;2023-11-19T10:44:48;100011.59;;;13.81;96.06
18500;BME280;9379;52.134;11.576;2023-11-19T10:47:15;100026.16;;;13.62;96.30
18500;BME280;9379;52.134;11.576;2023-11-19T10:49:45;100027.97;;;13.78;96.58
18500;BME280;9379;52.134;11.576;2023-11-19T10:52:16;100028.47;;;14.37;94.78
18500;BME280;9379;52.134;11.576;2023-11-19T10:54:49;100043.88;;;14.66;94.22
18500;BME280;9379;52.134;11.576;2023-11-19T10:57:19;100037.34;;;14.21;95.38
18500;BME280;9379;52.134;11.576;2023-11-19T10:59:49;100031.34;;;14.19;94.65
18500;BME280;9379;52.134;11.576;2023-11-19T11:02:21;100030.91;;;14.47;92.71
18500;BME280;9379;52.134;11.576;2023-11-19T11:04:51;100035.38;;;14.63;92.59
18500;BME280;9379;52.134;11.576;2023-11-19T11:07:21;100029.31;;;14.69;91.14
18500;BME280;9379;52.134;11.576;2023-11-19T11:09:49;100034.56;;;14.54;91.90
18500;BME280;9379;52.134;11.576;2023-11-19T11:12:17;100028.47;;;14.68;91.54
18500;BME280;9379;52.134;11.576;2023-11-19T11:14:50;100027.78;;;14.74;92.93
18500;BME280;9379;52.134;11.576;2023-11-19T11:17:24;100027.13;;;14.72;90.82
18500;BME280;9379;52.134;11.576;2023-11-19T11:19:54;100018.41;;;14.78;91.57
18500;BME280;9379;52.134;11.576;2023-11-19T11:22:22;100024.50;;;14.95;90.93
18500;BME280;9379;52.134;11.576;2023-11-19T11:25:04;100029.91;;;15.47;88.72
18500;BME280;9379;52.134;11.576;2023-11-19T11:30:53;100016.19;;;15.28;89.64
18500;BME280;9379;52.134;11.576;2023-11-19T11:33:34;100031.59;;;15.48;88.81
18500;BME280;9379;52.134;11.576;2023-11-19T11:36:12;100025.31;;;15.56;87.97
18500;BME280;9379;52.134;11.576;2023-11-19T11:38:40;100033.53;;;15.40;88.82
18500;BME280;9379;52.134;11.576;2023-11-19T11:41:18;100028.41;;;15.30;87.27
18500;BME280;9379;52.134;11.576;2023-11-19T11:43:47;100026.81;;;15.21;89.95
18500;BME280;9379;52.134;11.576;2023-11-19T11:49:26;100029.66;;;14.97;90.62
18500;BME280;9379;52.134;11.576;2023-11-19T11:51:58;100020.00;;;14.87;90.35
18500;BME280;9379;52.134;11.576;2023-11-19T11:54:28;100020.66;;;15.12;87.67
18500;BME280;9379;52.134;11.576;2023-11-19T11:57:07;100013.00;;;15.09;88.89
18500;BME280;9379;52.134;11.576;2023-11-19T11:59:50;100023.28;;;14.98;89.54
18500;BME280;9379;52.134;11.576;2023-11-19T12:02:19;100020.56;;;14.83;88.28
18500;BME280;9379;52.134;11.576;2023-11-19T12:04:49;100019.66;;;14.91;87.14
18500;BME280;9379;52.134;11.576;2023-11-19T12:07:18;100012.81;;;14.88;88.82
18500;BME280;9379;52.134;11.576;2023-11-19T12:09:52;100020.72;;;15.04;89.00
18500;BME280;9379;52.134;11.576;2023-11-19T12:12:27;100011.94;;;14.96;88.83
18500;BME280;9379;52.134;11.576;2023-11-19T12:15:02;100014.66;;;15.10;88.52
18500;BME280;9379;52.134;11.576;2023-11-19T12:17:49;100015.88;;;15.08;88.00
18500;BME280;9379;52.134;11.576;2023-11-19T12:20:18;100012.41;;;15.22;86.46
18500;BME280;9379;52.134;11.576;2023-11-19T12:22:46;100012.38;;;15.45;86.68
18500;BME280;9379;52.134;11.576;2023-11-19T12:25:15;100011.97;;;15.33;87.90
18500;BME280;9379;52.134;11.576;2023-11-19T12:27:44;100021.69;;;15.11;88.96
18500;BME280;9379;52.134;11.576;2023-11-19T12:30:11;100008.16;;;15.05;88.17
18500;BME280;9379;52.134;11.576;2023-11-19T12:32:39;100007.88;;;15.23;88.37
18500;BME280;9379;52.134;11.576;2023-11-19T12:35:07;100014.50;;;15.12;88.94
18500;BME280;9379;52.134;11.576;2023-11-19T12:37:45;100010.91;;;15.42;86.68
18500;BME280;9379;52.134;11.576;2023-11-19T12:40:14;99997.09;;;15.31;88.53
18500;BME280;9379;52.134;11.576;2023-11-19T12:42:41;100012.63;;;15.12;88.79
18500;BME280;9379;52.134;11.576;2023-11-19T12:45:08;100014.84;;;15.32;86.55
18500;BME280;9379;52.134;11.576;2023-11-19T12:47:38;100012.41;;;15.22;88.27
18500;BME280;9379;52.134;11.576;2023-11-19T12:50:06;100015.78;;;15.16;87.76
18500;BME280;9379;52.134;11.576;2023-11-19T12:52:33;100017.88;;;15.29;88.84
18500;BME280;9379;52.134;11.576;2023-11-19T12:55:02;100020.91;;;15.26;88.75
18500;BME280;9379;52.134;11.576;2023-11-19T12:57:39;100024.13;;;14.98;89.01
18500;BME280;9379;52.134;11.576;2023-11-19T13:00:07;100021.31;;;14.92;89.30
18500;BME280;9379;52.134;11.576;2023-11-19T13:02:46;100023.88;;;15.08;89.32